Time;durP1;ratioP1;P1;durP2;ratioP2;P2;SDS_P1;SDS_P2;PMS_P1;PMS_P2;Temp;Humidity;BMP_temperature;BMP_pressure;BME280_temperature;BME280_humidity;BME280_pressure;Samples;Min_cycle;Max_cycle;Signal;HPM_P1;HPM_P2
2023/12/12 00:01:36;;;;;;;5.17;2.50;;;9.30;99.90;;;;;;5077458;28;20462;-78
2023/12/12 00:04:03;;;;;;;9.07;2.57;;;9.40;99.90;;;;;;5077515;28;20457;-78
2023/12/12 00:06:30;;;;;;;8.33;2.73;;;9.40;99.90;;;;;;5071703;28;20554;-77
2023/12/12 00:08:57;;;;;;;6.80;2.63;;;9.30;99.90;;;;;;5072349;28;20478;-78
2023/12/12 00:11:23;;;;;;;6.63;2.43;;;9.30;99.90;;;;;;5079115;28;20466;-77
2023/12/12 00:13:50;;;;;;;7.20;3.00;;;9.30;99.90;;;;;;5082072;28;20454;-78
2023/12/12 00:16:17;;;;;;;9.70;3.27;;;9.40;99.90;;;;;;5081438;28;20445;-78
2023/12/12 00:18:45;;;;;;;11.37;2.90;;;9.30;99.90;;;;;;5080483;28;20543;-77
2023/12/12 00:21:26;;;;;;;5.33;2.57;;;9.30;99.90;;;;;;5079482;28;20456;-78
2023/12/12 00:23:52;;;;;;;11.33;3.43;;;9.30;99.90;;;;;;5067657;28;20449;-79
2023/12/12 00:26:26;;;;;;;12.00;3.23;;;9.20;99.90;;;;;;5064130;28;20593;-78
2023/12/12 00:28:53;;;;;;;6.40;3.37;;;9.20;99.90;;;;;;5062051;28;20542;-76
2023/12/12 00:31:20;;;;;;;7.47;3.60;;;9.30;99.90;;;;;;5062835;28;20659;-77
2023/12/12 00:33:49;;;;;;;8.73;3.73;;;9.30;99.90;;;;;;5064528;28;20541;-79
2023/12/12 00:36:16;;;;;;;8.17;3.60;;;9.30;99.90;;;;;;5071767;28;20462;-78
2023/12/12 00:38:43;;;;;;;9.57;3.03;;;9.40;99.90;;;;;;5075454;28;20473;-77
2023/12/12 00:41:10;;;;;;;4.60;2.73;;;9.30;99.90;;;;;;5075781;28;20455;-78
2023/12/12 00:43:37;;;;;;;8.17;2.90;;;9.40;99.90;;;;;;5080074;28;20499;-79
2023/12/12 00:46:05;;;;;;;9.00;3.00;;;9.40;99.90;;;;;;5078237;28;20468;-78
2023/12/12 00:48:32;;;;;;;10.17;3.50;;;9.40;99.90;;;;;;5076172;28;20486;-79
2023/12/12 00:51:00;;;;;;;4.80;2.60;;;9.40;99.90;;;;;;5074323;28;20500;-77
2023/12/12 00:53:29;;;;;;;7.00;2.57;;;9.40;99.90;;;;;;5083855;28;20476;-79
2023/12/12 00:55:56;;;;;;;6.23;2.50;;;9.40;99.90;;;;;;5077623;28;20461;-78
2023/12/12 00:58:23;;;;;;;3.73;2.50;;;9.50;99.90;;;;;;5071795;28;20589;-77
2023/12/12 01:00:50;;;;;;;8.93;2.53;;;9.40;99.90;;;;;;5077944;28;20528;-78
2023/12/12 01:03:16;;;;;;;11.20;2.57;;;9.40;99.90;;;;;;5087064;28;20502;-79
2023/12/12 01:05:43;;;;;;;7.00;2.57;;;9.40;99.90;;;;;;5085088;28;20493;-78
2023/12/12 01:08:11;;;;;;;5.50;2.70;;;9.50;99.90;;;;;;5071640;28;20541;-78
2023/12/12 01:10:38;;;;;;;6.33;2.93;;;9.40;99.90;;;;;;5078383;28;20458;-78
2023/12/12 01:13:05;;;;;;;4.13;1.90;;;9.50;99.90;;;;;;5079225;28;20459;-79
2023/12/12 01:15:32;;;;;;;7.00;2.50;;;9.50;99.90;;;;;;5078319;28;20520;-79
2023/12/12 01:17:58;;;;;;;5.70;2.13;;;9.50;99.90;;;;;;5087019;28;20480;-79
2023/12/12 01:20:33;;;;;;;8.87;2.77;;;9.50;99.90;;;;;;5073616;28;20998;-78
2023/12/12 01:23:00;;;;;;;7.13;2.07;;;9.40;99.90;;;;;;5080949;28;20810;-78
2023/12/12 01:25:31;;;;;;;4.83;1.90;;;9.50;99.90;;;;;;5076803;28;20973;-78
2023/12/12 01:27:58;;;;;;;7.03;2.03;;;9.40;99.90;;;;;;5082630;28;20576;-78
2023/12/12 01:30:27;;;;;;;6.60;2.17;;;9.50;99.90;;;;;;5081469;28;20458;-78
2023/12/12 01:32:54;;;;;;;5.83;2.50;;;9.50;99.90;;;;;;5081587;28;20457;-78
2023/12/12 01:35:21;;;;;;;7.20;2.47;;;9.50;99.90;;;;;;5078889;28;20469;-78
2023/12/12 01:37:48;;;;;;;6.80;2.03;;;9.40;99.90;;;;;;5079191;28;21080;-77
2023/12/12 01:40:15;;;;;;;5.93;2.50;;;9.40;99.90;;;;;;5077530;28;20832;-78
2023/12/12 01:42:43;;;;;;;9.70;2.80;;;9.40;99.90;;;;;;5074027;28;20458;-78
2023/12/12 01:45:10;;;;;;;6.80;2.50;;;9.40;99.90;;;;;;5079474;28;20452;-78
2023/12/12 01:47:37;;;;;;;4.37;2.23;;;9.40;99.90;;;;;;5082015;28;20875;-78
2023/12/12 01:50:04;;;;;;;9.57;2.30;;;9.40;99.90;;;;;;5071044;28;20486;-78
2023/12/12 01:52:31;;;;;;;9.27;2.30;;;9.40;99.90;;;;;;5075909;28;20458;-78
2023/12/12 01:54:59;;;;;;;7.30;2.23;;;9.40;99.90;;;;;;5074290;28;20837;-78
2023/12/12 01:57:26;;;;;;;7.20;2.20;;;9.50;99.90;;;;;;5062980;28;20459;-79
2023/12/12 01:59:54;;;;;;;8.70;2.03;;;9.40;99.90;;;;;;5073373;28;20489;-78
2023/12/12 02:02:21;;;;;;;12.17;3.30;;;9.40;99.90;;;;;;5070206;28;20456;-78
2023/12/12 02:04:49;;;;;;;6.03;2.40;;;9.40;99.90;;;;;;5078735;28;20492;-78
2023/12/12 02:07:17;;;;;;;5.67;2.10;;;9.40;99.90;;;;;;5081495;28;20846;-81
2023/12/12 02:09:44;;;;;;;7.83;3.00;;;9.40;99.90;;;;;;5078435;28;21084;-78
2023/12/12 02:12:11;;;;;;;9.80;2.70;;;9.40;99.90;;;;;;5079471;28;20536;-78
2023/12/12 02:14:38;;;;;;;12.67;2.33;;;9.40;99.90;;;;;;5073648;28;20460;-78
2023/12/12 02:17:06;;;;;;;6.37;2.07;;;9.40;99.90;;;;;;5066915;28;20447;-79
2023/12/12 02:19:36;;;;;;;8.70;2.30;;;9.40;99.90;;;;;;5069718;28;20488;-78
2023/12/12 02:22:04;;;;;;;4.90;2.20;;;9.40;99.90;;;;;;5079301;28;20526;-79
2023/12/12 02:24:31;;;;;;;8.80;2.40;;;9.40;99.90;;;;;;5076221;28;20467;-78
2023/12/12 02:26:58;;;;;;;5.87;2.33;;;9.20;99.90;;;;;;5079208;28;20498;-78
2023/12/12 02:29:25;;;;;;;5.60;2.40;;;9.20;99.90;;;;;;5078903;28;20501;-79
2023/12/12 02:31:51;;;;;;;8.17;2.33;;;9.30;99.90;;;;;;5077887;28;20460;-78
2023/12/12 02:34:18;;;;;;;5.63;3.10;;;9.20;99.90;;;;;;5072343;28;20470;-77
2023/12/12 02:36:54;;;;;;;7.30;2.07;;;9.20;99.90;;;;;;5072735;28;20454;-78
2023/12/12 02:39:22;;;;;;;5.40;2.30;;;9.20;99.90;;;;;;5074844;28;20557;-78
2023/12/12 02:41:51;;;;;;;3.70;2.03;;;9.20;99.90;;;;;;5067650;28;20473;-78
2023/12/12 02:44:18;;;;;;;10.30;2.77;;;9.30;99.90;;;;;;5070389;28;20988;-78
2023/12/12 02:46:43;;;;;;;5.50;2.40;;;9.20;99.90;;;;;;5070533;28;21022;-77
2023/12/12 02:49:10;;;;;;;5.70;2.03;;;9.20;99.90;;;;;;5069770;28;20481;-78
2023/12/12 02:51:37;;;;;;;9.50;2.70;;;9.20;99.90;;;;;;5077226;28;20306;-78
2023/12/12 02:54:04;;;;;;;4.90;2.27;;;9.20;99.90;;;;;;5076983;28;20457;-78
2023/12/12 02:56:33;;;;;;;13.90;2.97;;;9.20;99.90;;;;;;5066102;28;20466;-76
2023/12/12 02:59:00;;;;;;;4.07;1.97;;;9.10;99.90;;;;;;5069863;28;20684;-78
2023/12/12 03:01:27;;;;;;;8.67;2.87;;;9.10;99.90;;;;;;5076417;28;20820;-77
2023/12/12 03:03:54;;;;;;;4.93;2.33;;;9.20;99.90;;;;;;5072594;28;20467;-78
2023/12/12 03:06:21;;;;;;;8.60;2.37;;;9.10;99.90;;;;;;5069645;28;20853;-78
2023/12/12 03:08:52;;;;;;;9.10;2.73;;;9.20;99.90;;;;;;5077317;28;20870;-79
2023/12/12 03:11:19;;;;;;;6.80;2.20;;;9.20;99.90;;;;;;5078019;28;20547;-77
2023/12/12 03:13:47;;;;;;;6.00;2.27;;;9.30;99.90;;;;;;5074832;28;20463;-79
2023/12/12 03:16:14;;;;;;;10.63;3.50;;;9.20;99.90;;;;;;5076303;28;20454;-77
2023/12/12 03:18:41;;;;;;;8.43;2.80;;;9.20;99.90;;;;;;5075629;28;20479;-78
2023/12/12 03:21:11;;;;;;;14.77;3.10;;;9.30;99.90;;;;;;5078826;28;20451;-77
2023/12/12 03:23:38;;;;;;;11.80;3.43;;;9.30;99.90;;;;;;5075301;28;20470;-76
2023/12/12 03:26:08;;;;;;;10.20;3.80;;;9.20;99.90;;;;;;5074916;28;20884;-79
2023/12/12 03:28:34;;;;;;;8.13;3.00;;;9.10;99.90;;;;;;5067646;28;20634;-78
2023/12/12 03:31:03;;;;;;;15.93;3.07;;;9.20;99.90;;;;;;5078364;28;21272;-77
2023/12/12 03:33:29;;;;;;;12.00;2.77;;;9.30;99.90;;;;;;5076561;28;20567;-77
2023/12/12 03:36:36;;;;;;;;;;;;;;;;;;;;;
2023/12/12 03:39:03;;;;;;;13.13;2.47;;;9.20;99.90;;;;;;5064209;28;20839;-78
2023/12/12 03:41:31;;;;;;;8.20;2.90;;;9.30;99.90;;;;;;5075024;28;21166;-78
2023/12/12 03:43:58;;;;;;;11.33;2.70;;;9.30;99.90;;;;;;5072265;28;20537;-78
2023/12/12 03:46:30;;;;;;;9.70;2.60;;;9.30;99.90;;;;;;5076971;28;20476;-78
2023/12/12 03:48:57;;;;;;;9.10;2.30;;;9.30;99.90;;;;;;5071181;28;20532;-78
2023/12/12 03:51:24;;;;;;;9.47;2.23;;;9.30;99.90;;;;;;5077010;28;20462;-78
2023/12/12 03:53:51;;;;;;;9.80;2.80;;;9.30;99.90;;;;;;5073057;28;20545;-78
2023/12/12 03:56:17;;;;;;;8.40;2.73;;;9.30;99.90;;;;;;5067176;28;20458;-78
2023/12/12 03:58:45;;;;;;;6.73;2.60;;;9.20;99.90;;;;;;5067277;28;20477;-77
2023/12/12 04:01:11;;;;;;;10.80;2.90;;;9.20;99.90;;;;;;5073893;28;20464;-78
2023/12/12 04:03:42;;;;;;;7.20;2.90;;;9.20;99.90;;;;;;5061999;28;21016;-78
2023/12/12 04:06:10;;;;;;;11.33;2.80;;;9.10;99.90;;;;;;5073113;28;20536;-77
2023/12/12 04:08:37;;;;;;;10.83;2.70;;;9.10;99.90;;;;;;5077505;28;20585;-76
2023/12/12 04:11:04;;;;;;;17.53;3.40;;;9.00;99.90;;;;;;5071817;28;20466;-77
2023/12/12 04:13:31;;;;;;;11.93;3.03;;;8.90;99.90;;;;;;5075406;28;20461;-78
2023/12/12 04:15:58;;;;;;;10.27;2.30;;;8.90;99.90;;;;;;5076760;28;20453;-78
2023/12/12 04:18:24;;;;;;;19.03;3.27;;;8.90;99.90;;;;;;5061353;28;20474;-77
2023/12/12 04:20:53;;;;;;;12.13;3.07;;;8.80;99.90;;;;;;5077205;28;20457;-77
2023/12/12 04:23:19;;;;;;;14.50;3.07;;;8.80;99.90;;;;;;5077627;28;20829;-78
2023/12/12 04:25:46;;;;;;;7.90;3.03;;;8.80;99.90;;;;;;5076552;28;20477;-78
2023/12/12 04:28:13;;;;;;;10.37;2.40;;;8.80;99.90;;;;;;5070366;28;20494;-77
2023/12/12 04:30:40;;;;;;;10.13;3.13;;;8.70;99.90;;;;;;5058196;28;20463;-76
2023/12/12 04:33:08;;;;;;;7.23;2.80;;;8.70;99.90;;;;;;5067179;28;20509;-80
2023/12/12 04:35:36;;;;;;;12.10;2.73;;;8.70;99.90;;;;;;5072760;28;20464;-79
2023/12/12 04:38:06;;;;;;;21.50;4.77;;;8.70;99.90;;;;;;5065581;28;20537;-80
2023/12/12 04:40:35;;;;;;;12.53;3.00;;;8.70;99.90;;;;;;5074807;28;20460;-80
2023/12/12 04:43:01;;;;;;;9.77;3.17;;;8.70;99.90;;;;;;5073062;28;20458;-80
2023/12/12 04:45:28;;;;;;;14.27;4.00;;;8.70;99.90;;;;;;5076391;28;20922;-80
2023/12/12 04:47:55;;;;;;;7.60;2.80;;;8.80;99.90;;;;;;5058467;28;20507;-78
2023/12/12 04:50:22;;;;;;;21.23;3.90;;;8.90;99.90;;;;;;5072324;28;20457;-81
2023/12/12 04:52:49;;;;;;;9.77;3.40;;;8.80;99.90;;;;;;5060637;28;20504;-79
2023/12/12 04:55:23;;;;;;;12.70;3.03;;;8.80;99.90;;;;;;5069531;28;20467;-80
2023/12/12 04:57:50;;;;;;;9.53;3.70;;;8.80;99.90;;;;;;5073200;28;20828;-80
2023/12/12 05:00:17;;;;;;;12.90;2.90;;;8.90;99.90;;;;;;5079016;28;20961;-79
2023/12/12 05:02:45;;;;;;;16.13;3.50;;;8.80;99.90;;;;;;5060285;28;20473;-79
2023/12/12 05:05:12;;;;;;;8.23;2.83;;;8.80;99.90;;;;;;5068006;28;20471;-80
2023/12/12 05:07:39;;;;;;;12.97;4.30;;;8.70;99.90;;;;;;5079973;28;20598;-77
2023/12/12 05:10:07;;;;;;;9.73;3.07;;;8.60;99.90;;;;;;5056361;28;20486;-79
2023/12/12 05:12:35;;;;;;;10.77;2.53;;;8.60;99.90;;;;;;5072172;28;20466;-79
2023/12/12 05:15:03;;;;;;;16.57;3.50;;;8.50;99.90;;;;;;5079594;28;20457;-78
2023/12/12 05:17:29;;;;;;;18.00;3.77;;;8.40;99.90;;;;;;5080823;28;20521;-80
2023/12/12 05:19:56;;;;;;;11.80;3.47;;;8.30;99.90;;;;;;5074300;28;20470;-80
2023/12/12 05:22:23;;;;;;;9.60;2.87;;;8.30;99.90;;;;;;5082244;28;20519;-79
2023/12/12 05:24:50;;;;;;;8.60;3.70;;;8.30;99.90;;;;;;5080003;28;20449;-78
2023/12/12 05:27:17;;;;;;;12.70;3.43;;;8.20;99.90;;;;;;5076611;28;20466;-79
2023/12/12 05:29:45;;;;;;;12.60;4.53;;;8.10;99.90;;;;;;5075568;28;20550;-80
2023/12/12 05:32:12;;;;;;;10.47;3.47;;;8.00;99.90;;;;;;5074263;28;20468;-80
2023/12/12 05:34:39;;;;;;;16.37;3.67;;;8.00;99.90;;;;;;5069209;28;20454;-80
2023/12/12 05:37:10;;;;;;;8.40;2.40;;;7.90;99.90;;;;;;5075859;28;20460;-82
2023/12/12 05:39:37;;;;;;;13.87;4.10;;;7.80;99.90;;;;;;5059323;28;20881;-79
2023/12/12 05:42:04;;;;;;;14.70;4.70;;;7.80;99.90;;;;;;5055004;28;20466;-80
2023/12/12 05:44:32;;;;;;;9.83;3.73;;;7.80;99.90;;;;;;5061172;28;20453;-79
2023/12/12 05:47:01;;;;;;;12.10;4.30;;;7.70;99.90;;;;;;5079490;28;20839;-80
2023/12/12 05:49:28;;;;;;;13.27;4.03;;;7.70;99.90;;;;;;5062503;28;20495;-82
2023/12/12 05:51:55;;;;;;;10.40;3.57;;;7.60;99.90;;;;;;5059322;28;20473;-81
2023/12/12 05:54:23;;;;;;;9.40;3.37;;;7.50;99.90;;;;;;5060554;28;20461;-80
2023/12/12 05:56:49;;;;;;;19.33;4.00;;;7.40;99.90;;;;;;5079076;28;20828;-81
2023/12/12 05:59:16;;;;;;;10.17;3.80;;;7.40;99.90;;;;;;5074663;28;20482;-78
2023/12/12 06:01:43;;;;;;;6.27;3.13;;;7.40;99.90;;;;;;5063434;28;20472;-80
2023/12/12 06:04:13;;;;;;;8.70;3.97;;;7.40;99.90;;;;;;5065041;28;20548;-81
2023/12/12 06:06:44;;;;;;;17.13;3.60;;;7.40;99.90;;;;;;5064508;28;20466;-81
2023/12/12 06:09:11;;;;;;;8.00;3.30;;;7.40;99.90;;;;;;5063429;28;20484;-81
2023/12/12 06:11:38;;;;;;;17.20;3.80;;;7.50;99.90;;;;;;5070344;28;20468;-80
2023/12/12 06:14:07;;;;;;;9.13;2.90;;;7.50;99.90;;;;;;5066282;28;20469;-81
2023/12/12 06:16:35;;;;;;;7.63;3.27;;;7.50;99.90;;;;;;5068516;28;20475;-79
2023/12/12 06:19:04;;;;;;;10.40;3.17;;;7.50;99.90;;;;;;5065636;28;20471;-80
2023/12/12 06:21:35;;;;;;;15.23;4.20;;;7.50;99.90;;;;;;5066340;28;21097;-80
2023/12/12 06:24:03;;;;;;;14.10;2.83;;;7.50;99.90;;;;;;5067958;28;20464;-80
2023/12/12 06:26:31;;;;;;;12.73;3.50;;;7.50;99.90;;;;;;5072439;28;20467;-79
2023/12/12 06:28:57;;;;;;;15.23;4.60;;;7.50;99.90;;;;;;5065308;28;20489;-79
2023/12/12 06:31:24;;;;;;;8.67;3.23;;;7.50;99.90;;;;;;5068438;28;20463;-79
2023/12/12 06:33:52;;;;;;;12.33;3.73;;;7.50;99.90;;;;;;5067683;28;20497;-79
2023/12/12 06:36:19;;;;;;;10.07;4.30;;;7.50;99.90;;;;;;5064329;28;20560;-80
2023/12/12 06:38:47;;;;;;;11.27;3.60;;;7.50;99.90;;;;;;5072758;28;20480;-78
2023/12/12 06:41:15;;;;;;;11.30;3.20;;;7.50;99.90;;;;;;5061642;28;20470;-79
2023/12/12 06:43:43;;;;;;;6.93;2.77;;;7.60;99.90;;;;;;5065475;28;21036;-79
2023/12/12 06:46:10;;;;;;;10.13;3.23;;;7.60;99.90;;;;;;5081505;28;20440;-79
2023/12/12 06:48:37;;;;;;;7.87;3.23;;;7.70;99.90;;;;;;5070524;28;20495;-80
2023/12/12 06:51:04;;;;;;;16.90;3.03;;;7.70;99.90;;;;;;5063796;28;20458;-80
2023/12/12 06:53:31;;;;;;;10.37;3.57;;;7.80;99.90;;;;;;5071405;28;20449;-81
2023/12/12 06:55:59;;;;;;;8.20;3.03;;;7.80;99.90;;;;;;5062637;28;20460;-81
2023/12/12 06:58:28;;;;;;;12.03;3.17;;;7.90;99.90;;;;;;5060379;28;20480;-80
2023/12/12 07:00:56;;;;;;;12.67;3.77;;;7.90;99.90;;;;;;5063902;28;20463;-81
2023/12/12 07:03:22;;;;;;;10.73;3.70;;;7.90;99.90;;;;;;5064993;28;20462;-81
2023/12/12 07:05:51;;;;;;;20.57;3.80;;;7.90;99.90;;;;;;5061746;28;20461;-80
2023/12/12 07:08:17;;;;;;;12.00;4.00;;;8.00;99.90;;;;;;5068404;28;20496;-80
2023/12/12 07:10:44;;;;;;;12.23;4.27;;;8.00;99.90;;;;;;5056065;28;20475;-80
2023/12/12 07:13:12;;;;;;;9.20;3.57;;;8.00;99.90;;;;;;5063461;28;20465;-80
2023/12/12 07:15:40;;;;;;;19.10;4.17;;;8.10;99.90;;;;;;5061577;28;20893;-81
2023/12/12 07:18:10;;;;;;;6.90;3.60;;;8.20;99.90;;;;;;5062851;28;20455;-79
2023/12/12 07:20:36;;;;;;;8.43;3.03;;;8.30;99.90;;;;;;5058077;28;20452;-81
2023/12/12 07:23:04;;;;;;;9.03;3.40;;;8.30;99.90;;;;;;5060501;28;20522;-81
2023/12/12 07:25:31;;;;;;;11.70;3.10;;;8.40;99.90;;;;;;5061860;28;20790;-81
2023/12/12 07:27:57;;;;;;;9.27;3.53;;;8.40;99.90;;;;;;5061031;28;20822;-81
2023/12/12 07:30:27;;;;;;;11.97;3.93;;;8.40;99.90;;;;;;5058809;28;20835;-81
2023/12/12 07:32:54;;;;;;;13.77;3.50;;;8.50;99.90;;;;;;5064126;28;20437;-81
2023/12/12 07:35:21;;;;;;;12.17;4.27;;;8.60;99.90;;;;;;5057803;28;20516;-82
2023/12/12 07:37:48;;;;;;;17.03;4.47;;;8.60;99.90;;;;;;5066861;28;20882;-81
2023/12/12 07:40:15;;;;;;;11.80;4.90;;;8.60;99.90;;;;;;5060429;28;20476;-81
2023/12/12 07:42:42;;;;;;;11.07;3.13;;;8.60;99.90;;;;;;5067428;28;20444;-80
2023/12/12 07:45:09;;;;;;;10.63;3.90;;;8.60;99.90;;;;;;5061741;28;20456;-81
2023/12/12 07:47:38;;;;;;;10.13;3.23;;;8.70;99.90;;;;;;5069322;28;20455;-80
2023/12/12 07:50:05;;;;;;;11.17;4.30;;;8.70;99.90;;;;;;5065852;28;20502;-79
2023/12/12 07:52:32;;;;;;;10.30;3.30;;;8.70;99.90;;;;;;5070100;28;20449;-80
2023/12/12 07:54:59;;;;;;;9.00;3.73;;;8.70;99.90;;;;;;5065349;28;20524;-81
2023/12/12 07:57:26;;;;;;;16.80;4.07;;;8.80;99.90;;;;;;5061262;28;20492;-80
2023/12/12 07:59:53;;;;;;;6.67;3.50;;;8.80;99.90;;;;;;5056500;28;20475;-81
2023/12/12 08:02:21;;;;;;;13.50;4.27;;;8.80;99.90;;;;;;5067070;28;20449;-81
2023/12/12 08:04:49;;;;;;;13.70;4.27;;;8.90;99.90;;;;;;5074698;28;20458;-81
2023/12/12 08:07:16;;;;;;;11.10;3.60;;;8.90;99.90;;;;;;5064707;28;20474;-81
2023/12/12 08:09:43;;;;;;;14.27;3.40;;;8.90;99.90;;;;;;5057396;28;20493;-80
2023/12/12 08:12:10;;;;;;;14.50;3.90;;;8.80;99.90;;;;;;5063234;28;20455;-81
2023/12/12 08:14:37;;;;;;;5.07;2.30;;;8.80;99.90;;;;;;5064230;28;20464;-81
2023/12/12 08:17:04;;;;;;;13.13;7.10;;;8.90;99.90;;;;;;5069220;28;20458;-81
2023/12/12 08:19:31;;;;;;;12.80;4.47;;;8.80;99.90;;;;;;5069661;28;20825;-80
2023/12/12 08:21:59;;;;;;;12.60;4.03;;;8.80;99.90;;;;;;5065019;28;20492;-81
2023/12/12 08:24:27;;;;;;;13.03;3.77;;;8.80;99.90;;;;;;5068459;28;20480;-81
2023/12/12 08:26:54;;;;;;;15.30;4.27;;;8.80;99.90;;;;;;5069494;28;20460;-81
2023/12/12 08:29:21;;;;;;;20.10;6.60;;;8.80;99.90;;;;;;5062602;28;20485;-79
2023/12/12 08:31:48;;;;;;;12.97;7.67;;;8.80;99.90;;;;;;5066101;28;20482;-81
2023/12/12 08:34:15;;;;;;;26.00;8.20;;;8.90;99.90;;;;;;5066682;28;20454;-81
2023/12/12 08:36:42;;;;;;;17.90;7.27;;;8.90;99.90;;;;;;5068986;28;20482;-78
2023/12/12 08:39:11;;;;;;;16.07;6.03;;;9.00;99.90;;;;;;5060565;28;20478;-81
2023/12/12 08:41:38;;;;;;;12.70;5.00;;;9.10;99.90;;;;;;5064610;28;20935;-80
2023/12/12 08:44:05;;;;;;;14.63;5.17;;;9.20;99.90;;;;;;5059856;28;20450;-80
2023/12/12 08:46:32;;;;;;;12.40;4.40;;;9.20;99.90;;;;;;5073977;28;20445;-78
2023/12/12 08:48:59;;;;;;;20.98;5.70;;;9.60;99.90;;;;;;5070527;28;20482;-80
2023/12/12 08:51:27;;;;;;;10.27;3.90;;;9.50;99.90;;;;;;5065028;28;20201;-81
2023/12/12 08:53:58;;;;;;;14.63;3.67;;;9.70;99.90;;;;;;5074251;28;20446;-81
2023/12/12 08:56:26;;;;;;;12.40;4.13;;;9.80;99.90;;;;;;5059928;28;20487;-79
2023/12/12 08:58:54;;;;;;;14.67;4.17;;;10.00;99.90;;;;;;5069853;28;20549;-77
2023/12/12 09:01:21;;;;;;;12.43;3.40;;;10.10;99.90;;;;;;5062748;28;20484;-81
2023/12/12 09:03:48;;;;;;;17.30;3.83;;;10.20;99.90;;;;;;5073701;28;20533;-81
2023/12/12 09:06:15;;;;;;;11.90;3.90;;;10.20;99.90;;;;;;5082769;28;20549;-79
2023/12/12 09:08:42;;;;;;;10.70;3.33;;;10.30;99.90;;;;;;5063699;28;20479;-80
2023/12/12 09:11:09;;;;;;;15.37;3.20;;;10.40;99.90;;;;;;5063197;28;20501;-80
2023/12/12 09:13:38;;;;;;;11.50;3.17;;;10.50;99.90;;;;;;5059669;28;20447;-80
2023/12/12 09:16:05;;;;;;;8.80;2.40;;;10.50;99.90;;;;;;5063072;28;20452;-80
2023/12/12 09:18:32;;;;;;;11.43;3.10;;;10.60;99.90;;;;;;5068544;28;20462;-79
2023/12/12 09:20:59;;;;;;;15.37;3.10;;;10.80;99.90;;;;;;5072694;28;20459;-79
2023/12/12 09:23:27;;;;;;;9.80;3.27;;;10.90;99.90;;;;;;5078388;28;20443;-81
2023/12/12 09:25:55;;;;;;;13.13;3.40;;;11.00;99.90;;;;;;5069095;28;20455;-79
2023/12/12 09:28:22;;;;;;;15.77;3.60;;;11.10;99.90;;;;;;5063384;28;20488;-79
2023/12/12 09:30:50;;;;;;;8.10;2.83;;;11.10;99.90;;;;;;5064280;28;20867;-79
2023/12/12 09:33:17;;;;;;;7.30;3.77;;;11.20;99.90;;;;;;5071561;28;20881;-79
2023/12/12 09:35:43;;;;;;;18.23;3.67;;;11.40;99.90;;;;;;5072341;28;20522;-78
2023/12/12 09:38:10;;;;;;;10.80;3.20;;;11.40;99.90;;;;;;5085185;28;20466;-78
2023/12/12 09:40:39;;;;;;;7.30;2.80;;;11.70;99.90;;;;;;5068759;28;20896;-80
2023/12/12 09:43:07;;;;;;;11.63;2.97;;;11.70;99.90;;;;;;5068209;28;20453;-78
2023/12/12 09:45:35;;;;;;;14.33;3.00;;;11.80;99.90;;;;;;5065907;28;20456;-78
2023/12/12 09:48:04;;;;;;;10.40;3.00;;;12.00;99.90;;;;;;5064507;28;20846;-79
2023/12/12 09:50:31;;;;;;;11.03;2.90;;;12.00;99.90;;;;;;5065525;28;20507;-80
2023/12/12 09:53:00;;;;;;;16.10;2.63;;;12.00;99.90;;;;;;5061809;28;20461;-80
2023/12/12 09:55:28;;;;;;;9.27;3.40;;;12.20;99.90;;;;;;5065057;28;20459;-80
2023/12/12 09:57:54;;;;;;;8.40;2.30;;;12.20;99.90;;;;;;5056250;28;20545;-80
2023/12/12 10:00:22;;;;;;;8.70;3.10;;;12.30;99.90;;;;;;5063071;28;20453;-79
2023/12/12 10:02:50;;;;;;;10.93;3.10;;;12.40;99.90;;;;;;5069283;28;20460;-79
2023/12/12 10:05:19;;;;;;;7.87;2.63;;;12.50;99.90;;;;;;5060807;28;20457;-79
2023/12/12 10:07:47;;;;;;;9.17;2.60;;;12.70;99.90;;;;;;5069281;28;20677;-80
2023/12/12 10:10:14;;;;;;;14.83;3.30;;;12.80;99.90;;;;;;5061904;28;20918;-78
2023/12/12 10:12:42;;;;;;;10.93;3.17;;;12.80;99.90;;;;;;5068836;28;20539;-79
2023/12/12 10:15:23;;;;;;;9.57;3.87;;;12.70;99.90;;;;;;5068011;28;20837;-79
2023/12/12 10:17:54;;;;;;;7.83;2.07;;;12.70;99.90;;;;;;5064484;28;20452;-80
2023/12/12 10:20:26;;;;;;;11.50;2.27;;;12.60;99.90;;;;;;5058879;28;20446;-79
2023/12/12 10:22:54;;;;;;;9.33;3.00;;;12.70;99.90;;;;;;5068405;28;20471;-78
2023/12/12 10:25:22;;;;;;;9.93;3.13;;;12.90;99.90;;;;;;5060196;28;20451;-78
2023/12/12 10:27:52;;;;;;;19.67;3.30;;;12.90;99.90;;;;;;5063712;28;20461;-81
2023/12/12 10:30:20;;;;;;;9.50;2.00;;;12.80;99.90;;;;;;5062221;28;20971;-80
2023/12/12 10:32:48;;;;;;;9.10;2.50;;;12.80;99.90;;;;;;5064349;28;20451;-80
2023/12/12 10:35:15;;;;;;;9.60;2.60;;;12.80;99.90;;;;;;5065603;28;20954;-78
2023/12/12 10:37:43;;;;;;;7.97;1.83;;;12.50;99.90;;;;;;5066344;28;20556;-79
2023/12/12 10:40:15;;;;;;;3.90;1.70;;;12.40;99.90;;;;;;5062505;28;20467;-79
2023/12/12 10:42:42;;;;;;;4.90;2.10;;;12.30;99.90;;;;;;5055643;28;20942;-78
2023/12/12 10:45:12;;;;;;;7.67;2.60;;;12.30;99.90;;;;;;5063587;28;20482;-80
2023/12/12 10:47:43;;;;;;;10.67;2.00;;;12.30;99.90;;;;;;5062501;28;20858;-80
2023/12/12 10:50:17;;;;;;;8.90;2.63;;;12.30;99.90;;;;;;5062287;28;20489;-78
2023/12/12 10:52:47;;;;;;;7.20;1.67;;;12.30;99.90;;;;;;5062777;28;20485;-79
2023/12/12 10:55:15;;;;;;;12.10;2.67;;;12.30;99.90;;;;;;5063109;28;20445;-80
2023/12/12 10:57:43;;;;;;;7.60;1.93;;;12.30;99.90;;;;;;5060825;28;20476;-78
2023/12/12 11:00:12;;;;;;;8.83;3.10;;;12.50;99.90;;;;;;5067556;28;20487;-80
2023/12/12 11:02:41;;;;;;;5.87;2.10;;;12.60;99.90;;;;;;5071286;28;21057;-80
2023/12/12 11:05:10;;;;;;;7.67;2.47;;;12.50;99.90;;;;;;5056166;28;21175;-78
2023/12/12 11:07:37;;;;;;;9.03;2.00;;;12.50;99.90;;;;;;5065283;28;20456;-79
2023/12/12 11:10:09;;;;;;;10.10;1.87;;;12.70;99.90;;;;;;5066569;28;20585;-79
2023/12/12 11:12:39;;;;;;;8.07;2.10;;;12.70;99.90;;;;;;5065168;28;20522;-80
2023/12/12 11:15:09;;;;;;;4.03;1.80;;;12.70;99.90;;;;;;5067458;28;20979;-79
2023/12/12 11:17:36;;;;;;;6.83;1.83;;;13.00;99.90;;;;;;5062310;28;20455;-80
2023/12/12 11:20:13;;;;;;;8.23;4.30;;;13.30;99.90;;;;;;5064660;28;20462;-79
2023/12/12 11:22:41;;;;;;;9.47;2.20;;;13.90;99.90;;;;;;5065466;28;20450;-80
2023/12/12 11:25:16;;;;;;;3.33;1.73;;;14.20;99.90;;;;;;5054861;28;21002;-80
2023/12/12 11:27:47;;;;;;;5.50;1.90;;;14.60;99.90;;;;;;5065010;28;20490;-80
2023/12/12 11:30:14;;;;;;;6.10;1.83;;;15.00;99.90;;;;;;5064420;28;20494;-79
2023/12/12 11:32:43;;;;;;;8.20;2.20;;;16.00;99.90;;;;;;5059326;28;20456;-80
2023/12/12 11:35:29;;;;;;;6.77;2.00;;;16.50;99.90;;;;;;5065279;28;20522;-80
2023/12/12 11:37:56;;;;;;;5.20;1.70;;;17.10;99.90;;;;;;5062222;28;20460;-80
2023/12/12 11:40:26;;;;;;;5.97;2.10;;;17.30;99.90;;;;;;5065823;28;20545;-81
2023/12/12 11:42:53;;;;;;;4.93;1.60;;;17.30;99.90;;;;;;5060680;28;20457;-80
2023/12/12 11:45:34;;;;;;;7.43;1.90;;;17.10;99.90;;;;;;5057871;28;20459;-80
2023/12/12 11:48:02;;;;;;;9.50;2.20;;;17.10;99.90;;;;;;5066435;28;20516;-79
2023/12/12 11:50:34;;;;;;;5.30;1.87;;;17.40;99.90;;;;;;5058080;28;20493;-79
2023/12/12 11:53:04;;;;;;;6.30;1.60;;;17.40;99.90;;;;;;5066234;28;20458;-80
2023/12/12 11:55:34;;;;;;;6.20;2.30;;;17.10;99.90;;;;;;5056891;28;20611;-81
2023/12/12 11:58:03;;;;;;;8.30;2.67;;;16.50;99.90;;;;;;5060270;28;20455;-80
2023/12/12 12:00:35;;;;;;;3.90;1.57;;;16.20;99.90;;;;;;5055609;28;20452;-79
2023/12/12 12:03:02;;;;;;;16.27;3.67;;;15.70;99.90;;;;;;5068314;28;20455;-79
2023/12/12 12:05:29;;;;;;;9.57;1.97;;;15.80;99.90;;;;;;5063634;28;20460;-79
2023/12/12 12:07:56;;;;;;;7.23;2.50;;;16.10;99.90;;;;;;5065997;28;20492;-80
2023/12/12 12:10:24;;;;;;;11.50;1.93;;;16.30;99.90;;;;;;5063888;28;20491;-80
2023/12/12 12:12:57;;;;;;;8.57;3.23;;;15.90;99.90;;;;;;5067152;28;20451;-80
2023/12/12 12:15:24;;;;;;;6.27;2.20;;;15.60;99.90;;;;;;5066486;28;20498;-80
2023/12/12 12:17:51;;;;;;;7.70;2.13;;;15.30;99.90;;;;;;5056335;28;20466;-80
2023/12/12 12:20:19;;;;;;;6.50;1.93;;;15.10;99.90;;;;;;5068832;28;20542;-80
2023/12/12 12:22:46;;;;;;;6.13;1.80;;;15.60;99.90;;;;;;5058876;28;20534;-80
2023/12/12 12:25:13;;;;;;;6.20;1.80;;;15.80;99.90;;;;;;5065326;28;20542;-79
2023/12/12 12:27:51;;;;;;;8.53;1.67;;;16.00;99.90;;;;;;5062316;28;20446;-79
2023/12/12 12:30:20;;;;;;;7.67;1.90;;;15.60;99.90;;;;;;5064053;28;20504;-79
2023/12/12 12:33:00;;;;;;;9.07;1.77;;;15.70;99.90;;;;;;5055352;28;20459;-80
2023/12/12 12:35:31;;;;;;;5.87;1.53;;;15.40;99.90;;;;;;5062645;28;20455;-79
2023/12/12 12:37:58;;;;;;;5.20;1.50;;;15.40;99.90;;;;;;5067817;28;20967;-80
2023/12/12 12:40:36;;;;;;;5.20;1.73;;;15.40;99.90;;;;;;5064475;28;20453;-80
2023/12/12 12:43:04;;;;;;;6.10;1.90;;;15.30;99.90;;;;;;5064050;28;20539;-80
2023/12/12 12:45:34;;;;;;;10.87;2.20;;;15.30;99.90;;;;;;5056461;28;20488;-79
2023/12/12 12:48:02;;;;;;;5.90;1.50;;;15.10;99.90;;;;;;5061357;28;20459;-78
2023/12/12 12:50:29;;;;;;;4.87;1.57;;;14.90;99.90;;;;;;5063056;28;20493;-78
2023/12/12 12:52:58;;;;;;;5.60;1.90;;;14.80;99.90;;;;;;5067902;28;20455;-79
2023/12/12 12:55:24;;;;;;;3.53;1.53;;;14.60;99.90;;;;;;5067385;28;20453;-78